sensor_id;sensor_type;location;lat;lon;timestamp;P1;durP1;ratioP1;P2;durP2;ratioP2
25846;SDS011;13676;50.168;8.568;2023-07-20T00:01:46;2.08;;;1.30;;
25846;SDS011;13676;50.168;8.568;2023-07-20T00:04:12;2.83;;;1.42;;
25846;SDS011;13676;50.168;8.568;2023-07-20T00:06:40;2.23;;;1.37;;
25846;SDS011;13676;50.168;8.568;2023-07-20T00:09:08;1.73;;;1.20;;
25846;SDS011;13676;50.168;8.568;2023-07-20T00:11:37;1.45;;;1.05;;
25846;SDS011;13676;50.168;8.568;2023-07-20T00:14:04;2.58;;;1.30;;
25846;SDS011;13676;50.168;8.568;2023-07-20T00:16:30;7.03;;;1.70;;
25846;SDS011;13676;50.168;8.568;2023-07-20T00:18:56;3.33;;;1.20;;
25846;SDS011;13676;50.168;8.568;2023-07-20T00:21:22;4.65;;;1.63;;
25846;SDS011;13676;50.168;8.568;2023-07-20T00:23:47;1.87;;;1.20;;
25846;SDS011;13676;50.168;8.568;2023-07-20T00:26:13;2.40;;;1.20;;
25846;SDS011;13676;50.168;8.568;2023-07-20T00:28:38;3.75;;;1.60;;
25846;SDS011;13676;50.168;8.568;2023-07-20T00:31:07;7.15;;;1.48;;
25846;SDS011;13676;50.168;8.568;2023-07-20T00:33:32;5.20;;;1.85;;
25846;SDS011;13676;50.168;8.568;2023-07-20T00:35:58;11.20;;;1.60;;
25846;SDS011;13676;50.168;8.568;2023-07-20T00:38:24;3.15;;;1.40;;
25846;SDS011;13676;50.168;8.568;2023-07-20T00:40:49;2.17;;;1.20;;
25846;SDS011;13676;50.168;8.568;2023-07-20T00:43:14;3.42;;;1.63;;
25846;SDS011;13676;50.168;8.568;2023-07-20T00:45:40;4.57;;;1.42;;
25846;SDS011;13676;50.168;8.568;2023-07-20T00:48:07;2.78;;;1.55;;
25846;SDS011;13676;50.168;8.568;2023-07-20T00:50:33;3.95;;;1.55;;
25846;SDS011;13676;50.168;8.568;2023-07-20T00:52:59;3.33;;;1.52;;
25846;SDS011;13676;50.168;8.568;2023-07-20T00:55:24;3.47;;;1.60;;
25846;SDS011;13676;50.168;8.568;2023-07-20T00:57:50;4.03;;;1.60;;
25846;SDS011;13676;50.168;8.568;2023-07-20T01:00:16;3.28;;;1.30;;
25846;SDS011;13676;50.168;8.568;2023-07-20T01:02:42;2.60;;;1.30;;
25846;SDS011;13676;50.168;8.568;2023-07-20T01:05:07;5.10;;;1.45;;
25846;SDS011;13676;50.168;8.568;2023-07-20T01:07:39;3.93;;;2.13;;
25846;SDS011;13676;50.168;8.568;2023-07-20T01:10:31;4.05;;;1.77;;
25846;SDS011;13676;50.168;8.568;2023-07-20T01:13:07;2.25;;;1.40;;
25846;SDS011;13676;50.168;8.568;2023-07-20T01:15:35;4.40;;;1.70;;
25846;SDS011;13676;50.168;8.568;2023-07-20T01:18:00;3.90;;;1.60;;
25846;SDS011;13676;50.168;8.568;2023-07-20T01:20:30;3.33;;;1.50;;
25846;SDS011;13676;50.168;8.568;2023-07-20T01:25:45;3.38;;;1.80;;
25846;SDS011;13676;50.168;8.568;2023-07-20T01:33:57;3.22;;;1.85;;
25846;SDS011;13676;50.168;8.568;2023-07-20T01:36:26;2.55;;;1.20;;
25846;SDS011;13676;50.168;8.568;2023-07-20T01:38:53;2.75;;;1.40;;
25846;SDS011;13676;50.168;8.568;2023-07-20T01:41:19;2.88;;;1.63;;
25846;SDS011;13676;50.168;8.568;2023-07-20T01:43:45;3.42;;;1.45;;
25846;SDS011;13676;50.168;8.568;2023-07-20T01:46:11;5.45;;;1.48;;
25846;SDS011;13676;50.168;8.568;2023-07-20T01:48:37;2.67;;;1.40;;
25846;SDS011;13676;50.168;8.568;2023-07-20T01:51:02;4.47;;;1.50;;
25846;SDS011;13676;50.168;8.568;2023-07-20T01:53:27;3.72;;;1.50;;
25846;SDS011;13676;50.168;8.568;2023-07-20T01:55:53;4.47;;;1.48;;
25846;SDS011;13676;50.168;8.568;2023-07-20T01:58:19;5.20;;;1.52;;
25846;SDS011;13676;50.168;8.568;2023-07-20T02:00:44;3.75;;;1.65;;
25846;SDS011;13676;50.168;8.568;2023-07-20T02:03:10;4.95;;;1.80;;
25846;SDS011;13676;50.168;8.568;2023-07-20T02:05:37;3.20;;;1.58;;
25846;SDS011;13676;50.168;8.568;2023-07-20T02:08:02;3.20;;;1.60;;
25846;SDS011;13676;50.168;8.568;2023-07-20T02:10:29;4.80;;;1.70;;
25846;SDS011;13676;50.168;8.568;2023-07-20T02:12:54;3.33;;;1.83;;
25846;SDS011;13676;50.168;8.568;2023-07-20T02:15:20;3.60;;;1.83;;
25846;SDS011;13676;50.168;8.568;2023-07-20T02:17:46;3.88;;;1.63;;
25846;SDS011;13676;50.168;8.568;2023-07-20T02:20:12;3.60;;;1.77;;
25846;SDS011;13676;50.168;8.568;2023-07-20T02:22:39;3.17;;;1.60;;
25846;SDS011;13676;50.168;8.568;2023-07-20T02:25:08;3.47;;;1.75;;
25846;SDS011;13676;50.168;8.568;2023-07-20T02:27:34;2.92;;;1.63;;
25846;SDS011;13676;50.168;8.568;2023-07-20T02:29:59;1.92;;;1.50;;
25846;SDS011;13676;50.168;8.568;2023-07-20T02:32:25;3.60;;;1.65;;
25846;SDS011;13676;50.168;8.568;2023-07-20T02:34:51;2.45;;;1.42;;
25846;SDS011;13676;50.168;8.568;2023-07-20T02:37:16;3.50;;;1.75;;
25846;SDS011;13676;50.168;8.568;2023-07-20T02:39:43;2.55;;;1.67;;
25846;SDS011;13676;50.168;8.568;2023-07-20T02:42:08;2.67;;;1.30;;
25846;SDS011;13676;50.168;8.568;2023-07-20T02:44:33;4.88;;;1.83;;
25846;SDS011;13676;50.168;8.568;2023-07-20T02:46:59;3.92;;;1.70;;
25846;SDS011;13676;50.168;8.568;2023-07-20T02:49:26;4.32;;;1.67;;
25846;SDS011;13676;50.168;8.568;2023-07-20T02:51:51;3.15;;;1.42;;
25846;SDS011;13676;50.168;8.568;2023-07-20T02:54:17;3.70;;;1.70;;
25846;SDS011;13676;50.168;8.568;2023-07-20T02:56:43;4.30;;;1.90;;
25846;SDS011;13676;50.168;8.568;2023-07-20T02:59:09;4.80;;;1.90;;
25846;SDS011;13676;50.168;8.568;2023-07-20T03:01:34;6.53;;;1.88;;
25846;SDS011;13676;50.168;8.568;2023-07-20T03:04:00;6.38;;;1.70;;
25846;SDS011;13676;50.168;8.568;2023-07-20T03:06:26;4.07;;;1.60;;
25846;SDS011;13676;50.168;8.568;2023-07-20T03:08:52;4.38;;;1.65;;
25846;SDS011;13676;50.168;8.568;2023-07-20T03:11:18;3.17;;;1.50;;
25846;SDS011;13676;50.168;8.568;2023-07-20T03:13:46;3.05;;;1.50;;
25846;SDS011;13676;50.168;8.568;2023-07-20T03:16:14;2.88;;;2.08;;
25846;SDS011;13676;50.168;8.568;2023-07-20T03:18:43;3.15;;;1.90;;
25846;SDS011;13676;50.168;8.568;2023-07-20T03:21:09;2.90;;;1.70;;
25846;SDS011;13676;50.168;8.568;2023-07-20T03:26:01;5.60;;;2.00;;
25846;SDS011;13676;50.168;8.568;2023-07-20T03:28:28;3.45;;;1.80;;
25846;SDS011;13676;50.168;8.568;2023-07-20T03:30:54;3.13;;;1.50;;
25846;SDS011;13676;50.168;8.568;2023-07-20T03:33:25;4.63;;;1.92;;
25846;SDS011;13676;50.168;8.568;2023-07-20T03:35:52;2.95;;;1.60;;
25846;SDS011;13676;50.168;8.568;2023-07-20T03:38:19;3.60;;;1.55;;
25846;SDS011;13676;50.168;8.568;2023-07-20T03:43:22;5.93;;;1.60;;
25846;SDS011;13676;50.168;8.568;2023-07-20T03:45:48;3.47;;;1.77;;
25846;SDS011;13676;50.168;8.568;2023-07-20T03:48:15;4.05;;;1.83;;
25846;SDS011;13676;50.168;8.568;2023-07-20T03:50:41;3.28;;;1.63;;
25846;SDS011;13676;50.168;8.568;2023-07-20T03:53:06;3.33;;;1.70;;
25846;SDS011;13676;50.168;8.568;2023-07-20T03:55:32;2.78;;;1.55;;
25846;SDS011;13676;50.168;8.568;2023-07-20T03:57:57;3.15;;;1.60;;
25846;SDS011;13676;50.168;8.568;2023-07-20T04:00:23;2.13;;;1.60;;
25846;SDS011;13676;50.168;8.568;2023-07-20T04:02:49;3.38;;;1.63;;
25846;SDS011;13676;50.168;8.568;2023-07-20T04:05:14;4.22;;;1.90;;
25846;SDS011;13676;50.168;8.568;2023-07-20T04:07:40;3.38;;;1.90;;
25846;SDS011;13676;50.168;8.568;2023-07-20T04:10:06;5.15;;;1.70;;
25846;SDS011;13676;50.168;8.568;2023-07-20T04:12:32;3.63;;;1.80;;
25846;SDS011;13676;50.168;8.568;2023-07-20T04:14:58;3.25;;;1.65;;
25846;SDS011;13676;50.168;8.568;2023-07-20T04:17:23;3.05;;;1.77;;
25846;SDS011;13676;50.168;8.568;2023-07-20T04:19:48;3.63;;;2.05;;
25846;SDS011;13676;50.168;8.568;2023-07-20T04:22:14;3.92;;;1.70;;
25846;SDS011;13676;50.168;8.568;2023-07-20T04:24:41;2.50;;;1.65;;
25846;SDS011;13676;50.168;8.568;2023-07-20T04:27:07;2.75;;;1.60;;
25846;SDS011;13676;50.168;8.568;2023-07-20T04:29:34;3.17;;;1.60;;
25846;SDS011;13676;50.168;8.568;2023-07-20T04:31:59;2.83;;;1.55;;
25846;SDS011;13676;50.168;8.568;2023-07-20T04:34:25;3.22;;;1.83;;
25846;SDS011;13676;50.168;8.568;2023-07-20T04:36:51;3.92;;;1.70;;
25846;SDS011;13676;50.168;8.568;2023-07-20T04:39:16;4.55;;;2.03;;
25846;SDS011;13676;50.168;8.568;2023-07-20T04:41:42;5.32;;;1.73;;
25846;SDS011;13676;50.168;8.568;2023-07-20T04:44:07;4.05;;;1.42;;
25846;SDS011;13676;50.168;8.568;2023-07-20T04:46:33;4.13;;;1.75;;
25846;SDS011;13676;50.168;8.568;2023-07-20T04:48:58;5.80;;;2.15;;
25846;SDS011;13676;50.168;8.568;2023-07-20T04:51:24;2.67;;;1.45;;
25846;SDS011;13676;50.168;8.568;2023-07-20T04:53:49;5.60;;;2.00;;
25846;SDS011;13676;50.168;8.568;2023-07-20T04:56:15;3.03;;;1.88;;
25846;SDS011;13676;50.168;8.568;2023-07-20T04:58:40;3.75;;;1.60;;
25846;SDS011;13676;50.168;8.568;2023-07-20T05:01:06;2.80;;;1.52;;
25846;SDS011;13676;50.168;8.568;2023-07-20T05:03:32;3.30;;;1.45;;
25846;SDS011;13676;50.168;8.568;2023-07-20T05:05:58;2.63;;;1.70;;
25846;SDS011;13676;50.168;8.568;2023-07-20T05:08:24;3.05;;;1.70;;
25846;SDS011;13676;50.168;8.568;2023-07-20T05:10:50;2.60;;;1.45;;
25846;SDS011;13676;50.168;8.568;2023-07-20T05:13:16;2.78;;;1.50;;
25846;SDS011;13676;50.168;8.568;2023-07-20T05:15:43;4.00;;;1.80;;
25846;SDS011;13676;50.168;8.568;2023-07-20T05:18:08;7.90;;;1.65;;
25846;SDS011;13676;50.168;8.568;2023-07-20T05:20:34;3.60;;;1.67;;
25846;SDS011;13676;50.168;8.568;2023-07-20T05:23:00;2.65;;;1.38;;
25846;SDS011;13676;50.168;8.568;2023-07-20T05:25:26;3.92;;;1.90;;
25846;SDS011;13676;50.168;8.568;2023-07-20T05:27:51;5.88;;;1.90;;
25846;SDS011;13676;50.168;8.568;2023-07-20T05:30:17;6.05;;;1.65;;
25846;SDS011;13676;50.168;8.568;2023-07-20T05:32:44;2.75;;;1.45;;
25846;SDS011;13676;50.168;8.568;2023-07-20T05:35:15;5.75;;;1.80;;
25846;SDS011;13676;50.168;8.568;2023-07-20T05:37:42;1.50;;;1.40;;
25846;SDS011;13676;50.168;8.568;2023-07-20T05:40:11;3.15;;;1.55;;
25846;SDS011;13676;50.168;8.568;2023-07-20T05:42:40;2.22;;;1.50;;
25846;SDS011;13676;50.168;8.568;2023-07-20T05:45:06;3.75;;;1.40;;
25846;SDS011;13676;50.168;8.568;2023-07-20T05:47:34;4.40;;;1.80;;
25846;SDS011;13676;50.168;8.568;2023-07-20T05:49:59;3.25;;;1.20;;
25846;SDS011;13676;50.168;8.568;2023-07-20T05:52:25;3.90;;;1.55;;
25846;SDS011;13676;50.168;8.568;2023-07-20T05:54:50;2.22;;;1.38;;
25846;SDS011;13676;50.168;8.568;2023-07-20T05:57:16;5.00;;;1.50;;
25846;SDS011;13676;50.168;8.568;2023-07-20T05:59:41;4.93;;;1.58;;
25846;SDS011;13676;50.168;8.568;2023-07-20T06:02:09;6.22;;;1.63;;
25846;SDS011;13676;50.168;8.568;2023-07-20T06:04:35;2.08;;;1.40;;
25846;SDS011;13676;50.168;8.568;2023-07-20T06:07:00;2.50;;;1.35;;
25846;SDS011;13676;50.168;8.568;2023-07-20T06:09:26;6.38;;;1.52;;
25846;SDS011;13676;50.168;8.568;2023-07-20T06:11:52;7.22;;;1.60;;
25846;SDS011;13676;50.168;8.568;2023-07-20T06:14:17;3.15;;;1.50;;
25846;SDS011;13676;50.168;8.568;2023-07-20T06:16:43;2.30;;;1.50;;
25846;SDS011;13676;50.168;8.568;2023-07-20T06:19:09;5.25;;;1.52;;
25846;SDS011;13676;50.168;8.568;2023-07-20T06:21:37;3.35;;;1.65;;
25846;SDS011;13676;50.168;8.568;2023-07-20T06:24:04;2.65;;;1.60;;
25846;SDS011;13676;50.168;8.568;2023-07-20T06:26:29;2.58;;;1.40;;
25846;SDS011;13676;50.168;8.568;2023-07-20T06:28:55;3.85;;;1.48;;
25846;SDS011;13676;50.168;8.568;2023-07-20T06:31:21;3.65;;;1.65;;
25846;SDS011;13676;50.168;8.568;2023-07-20T06:33:46;3.03;;;1.42;;
25846;SDS011;13676;50.168;8.568;2023-07-20T06:36:12;3.53;;;1.10;;
25846;SDS011;13676;50.168;8.568;2023-07-20T06:38:38;4.57;;;1.60;;
25846;SDS011;13676;50.168;8.568;2023-07-20T06:41:04;4.70;;;2.00;;
25846;SDS011;13676;50.168;8.568;2023-07-20T06:43:29;2.58;;;1.42;;
25846;SDS011;13676;50.168;8.568;2023-07-20T06:45:55;2.38;;;1.10;;
25846;SDS011;13676;50.168;8.568;2023-07-20T06:48:21;3.67;;;1.60;;
25846;SDS011;13676;50.168;8.568;2023-07-20T06:50:47;3.47;;;1.42;;
25846;SDS011;13676;50.168;8.568;2023-07-20T06:53:12;3.97;;;1.63;;
25846;SDS011;13676;50.168;8.568;2023-07-20T06:55:41;2.80;;;1.20;;
25846;SDS011;13676;50.168;8.568;2023-07-20T06:58:07;2.70;;;1.30;;
25846;SDS011;13676;50.168;8.568;2023-07-20T07:00:33;4.88;;;1.67;;
25846;SDS011;13676;50.168;8.568;2023-07-20T07:02:59;3.73;;;1.70;;
25846;SDS011;13676;50.168;8.568;2023-07-20T07:05:24;3.38;;;1.40;;
25846;SDS011;13676;50.168;8.568;2023-07-20T07:07:49;3.67;;;1.50;;
25846;SDS011;13676;50.168;8.568;2023-07-20T07:10:15;3.05;;;1.50;;
25846;SDS011;13676;50.168;8.568;2023-07-20T07:12:40;5.20;;;1.80;;
25846;SDS011;13676;50.168;8.568;2023-07-20T07:15:06;1.98;;;1.15;;
25846;SDS011;13676;50.168;8.568;2023-07-20T07:17:32;2.53;;;1.30;;
25846;SDS011;13676;50.168;8.568;2023-07-20T07:19:58;3.13;;;1.40;;
25846;SDS011;13676;50.168;8.568;2023-07-20T07:22:23;8.90;;;1.88;;
25846;SDS011;13676;50.168;8.568;2023-07-20T07:24:52;4.07;;;1.75;;
25846;SDS011;13676;50.168;8.568;2023-07-20T07:27:18;3.03;;;1.55;;
25846;SDS011;13676;50.168;8.568;2023-07-20T07:29:44;4.82;;;1.90;;
25846;SDS011;13676;50.168;8.568;2023-07-20T07:32:10;5.13;;;1.58;;
25846;SDS011;13676;50.168;8.568;2023-07-20T07:34:36;5.57;;;1.63;;
25846;SDS011;13676;50.168;8.568;2023-07-20T07:37:02;2.92;;;1.30;;
25846;SDS011;13676;50.168;8.568;2023-07-20T07:39:28;4.13;;;1.73;;
25846;SDS011;13676;50.168;8.568;2023-07-20T07:41:55;5.15;;;1.70;;
25846;SDS011;13676;50.168;8.568;2023-07-20T07:44:21;5.07;;;1.80;;
25846;SDS011;13676;50.168;8.568;2023-07-20T07:46:47;4.35;;;1.80;;
25846;SDS011;13676;50.168;8.568;2023-07-20T07:49:14;3.92;;;1.67;;
25846;SDS011;13676;50.168;8.568;2023-07-20T07:51:40;3.15;;;1.30;;
25846;SDS011;13676;50.168;8.568;2023-07-20T07:54:05;6.32;;;1.50;;
25846;SDS011;13676;50.168;8.568;2023-07-20T07:56:30;3.65;;;1.30;;
25846;SDS011;13676;50.168;8.568;2023-07-20T07:58:56;4.30;;;1.55;;
25846;SDS011;13676;50.168;8.568;2023-07-20T08:01:22;3.95;;;1.80;;
25846;SDS011;13676;50.168;8.568;2023-07-20T08:03:47;2.92;;;1.58;;
25846;SDS011;13676;50.168;8.568;2023-07-20T08:06:14;2.55;;;1.40;;
25846;SDS011;13676;50.168;8.568;2023-07-20T08:08:39;5.53;;;1.42;;
25846;SDS011;13676;50.168;8.568;2023-07-20T08:11:05;1.83;;;1.30;;
25846;SDS011;13676;50.168;8.568;2023-07-20T08:13:30;6.03;;;2.13;;
25846;SDS011;13676;50.168;8.568;2023-07-20T08:15:57;3.38;;;1.38;;
25846;SDS011;13676;50.168;8.568;2023-07-20T08:18:23;3.60;;;1.60;;
25846;SDS011;13676;50.168;8.568;2023-07-20T08:20:49;2.53;;;1.63;;
25846;SDS011;13676;50.168;8.568;2023-07-20T08:23:14;3.03;;;1.42;;
25846;SDS011;13676;50.168;8.568;2023-07-20T08:25:39;2.53;;;1.25;;
25846;SDS011;13676;50.168;8.568;2023-07-20T08:28:08;2.03;;;1.00;;
25846;SDS011;13676;50.168;8.568;2023-07-20T08:30:46;4.70;;;1.70;;
25846;SDS011;13676;50.168;8.568;2023-07-20T08:33:13;4.30;;;2.00;;
25846;SDS011;13676;50.168;8.568;2023-07-20T08:35:39;3.38;;;1.75;;
25846;SDS011;13676;50.168;8.568;2023-07-20T08:38:05;3.17;;;1.52;;
25846;SDS011;13676;50.168;8.568;2023-07-20T08:40:31;1.75;;;1.20;;
25846;SDS011;13676;50.168;8.568;2023-07-20T08:42:58;2.53;;;1.58;;
25846;SDS011;13676;50.168;8.568;2023-07-20T08:45:25;3.65;;;1.60;;
25846;SDS011;13676;50.168;8.568;2023-07-20T08:47:53;3.40;;;1.65;;
25846;SDS011;13676;50.168;8.568;2023-07-20T08:50:19;2.58;;;1.38;;
25846;SDS011;13676;50.168;8.568;2023-07-20T08:52:47;4.05;;;1.40;;
25846;SDS011;13676;50.168;8.568;2023-07-20T08:55:13;2.67;;;1.50;;
25846;SDS011;13676;50.168;8.568;2023-07-20T08:57:38;8.98;;;1.30;;
25846;SDS011;13676;50.168;8.568;2023-07-20T09:00:05;2.53;;;1.55;;
25846;SDS011;13676;50.168;8.568;2023-07-20T09:02:35;2.65;;;1.27;;
25846;SDS011;13676;50.168;8.568;2023-07-20T09:05:05;3.55;;;1.52;;
25846;SDS011;13676;50.168;8.568;2023-07-20T09:07:32;2.45;;;1.30;;
25846;SDS011;13676;50.168;8.568;2023-07-20T09:09:59;3.80;;;1.63;;
25846;SDS011;13676;50.168;8.568;2023-07-20T09:12:24;3.22;;;1.50;;
25846;SDS011;13676;50.168;8.568;2023-07-20T09:14:50;6.10;;;1.30;;
25846;SDS011;13676;50.168;8.568;2023-07-20T09:17:16;4.15;;;1.60;;
25846;SDS011;13676;50.168;8.568;2023-07-20T09:19:49;3.53;;;1.90;;
25846;SDS011;13676;50.168;8.568;2023-07-20T09:22:14;3.80;;;1.85;;
25846;SDS011;13676;50.168;8.568;2023-07-20T09:24:39;2.53;;;1.45;;
25846;SDS011;13676;50.168;8.568;2023-07-20T09:27:06;2.35;;;1.38;;
25846;SDS011;13676;50.168;8.568;2023-07-20T09:29:32;3.75;;;1.30;;
25846;SDS011;13676;50.168;8.568;2023-07-20T09:32:00;3.30;;;1.30;;
25846;SDS011;13676;50.168;8.568;2023-07-20T09:34:28;2.50;;;1.60;;
25846;SDS011;13676;50.168;8.568;2023-07-20T09:36:56;1.67;;;1.20;;
25846;SDS011;13676;50.168;8.568;2023-07-20T09:39:22;1.98;;;1.42;;
25846;SDS011;13676;50.168;8.568;2023-07-20T09:41:48;3.15;;;1.27;;
25846;SDS011;13676;50.168;8.568;2023-07-20T09:44:16;1.67;;;1.20;;
25846;SDS011;13676;50.168;8.568;2023-07-20T09:46:45;2.42;;;1.23;;
25846;SDS011;13676;50.168;8.568;2023-07-20T09:49:11;3.85;;;1.70;;
25846;SDS011;13676;50.168;8.568;2023-07-20T09:51:37;2.50;;;1.30;;
25846;SDS011;13676;50.168;8.568;2023-07-20T09:54:03;3.15;;;1.50;;
25846;SDS011;13676;50.168;8.568;2023-07-20T09:56:29;1.70;;;1.20;;
25846;SDS011;13676;50.168;8.568;2023-07-20T09:58:55;2.58;;;1.20;;
25846;SDS011;13676;50.168;8.568;2023-07-20T10:01:22;3.28;;;1.30;;
25846;SDS011;13676;50.168;8.568;2023-07-20T10:03:50;3.97;;;2.03;;
25846;SDS011;13676;50.168;8.568;2023-07-20T10:06:20;2.72;;;1.55;;
25846;SDS011;13676;50.168;8.568;2023-07-20T10:08:50;2.10;;;1.15;;
25846;SDS011;13676;50.168;8.568;2023-07-20T10:11:17;2.55;;;1.00;;
25846;SDS011;13676;50.168;8.568;2023-07-20T10:13:44;1.75;;;1.05;;
25846;SDS011;13676;50.168;8.568;2023-07-20T10:16:10;1.30;;;0.90;;
25846;SDS011;13676;50.168;8.568;2023-07-20T10:22:14;2.08;;;1.00;;
25846;SDS011;13676;50.168;8.568;2023-07-20T10:24:45;2.80;;;1.23;;
25846;SDS011;13676;50.168;8.568;2023-07-20T10:27:12;2.28;;;1.02;;
25846;SDS011;13676;50.168;8.568;2023-07-20T10:29:38;2.42;;;1.20;;
25846;SDS011;13676;50.168;8.568;2023-07-20T10:32:05;4.20;;;1.20;;
25846;SDS011;13676;50.168;8.568;2023-07-20T10:34:31;1.75;;;1.20;;
25846;SDS011;13676;50.168;8.568;2023-07-20T10:36:57;2.20;;;1.45;;
25846;SDS011;13676;50.168;8.568;2023-07-20T10:39:26;1.95;;;1.10;;
25846;SDS011;13676;50.168;8.568;2023-07-20T10:44:33;1.10;;;1.00;;
25846;SDS011;13676;50.168;8.568;2023-07-20T10:47:03;1.23;;;0.88;;
25846;SDS011;13676;50.168;8.568;2023-07-20T10:49:34;1.50;;;1.13;;
25846;SDS011;13676;50.168;8.568;2023-07-20T10:52:03;2.90;;;1.13;;
25846;SDS011;13676;50.168;8.568;2023-07-20T10:56:55;1.52;;;1.10;;
25846;SDS011;13676;50.168;8.568;2023-07-20T11:01:51;1.83;;;1.00;;
25846;SDS011;13676;50.168;8.568;2023-07-20T11:04:21;1.48;;;0.90;;
25846;SDS011;13676;50.168;8.568;2023-07-20T11:07:03;1.45;;;0.77;;
25846;SDS011;13676;50.168;8.568;2023-07-20T11:09:33;1.27;;;1.00;;
25846;SDS011;13676;50.168;8.568;2023-07-20T11:14:55;3.78;;;1.38;;
25846;SDS011;13676;50.168;8.568;2023-07-20T11:17:22;3.00;;;1.23;;
25846;SDS011;13676;50.168;8.568;2023-07-20T11:19:57;3.05;;;1.30;;
25846;SDS011;13676;50.168;8.568;2023-07-20T11:22:25;1.60;;;1.05;;
25846;SDS011;13676;50.168;8.568;2023-07-20T11:24:54;2.67;;;1.10;;
25846;SDS011;13676;50.168;8.568;2023-07-20T11:27:20;3.05;;;1.33;;
25846;SDS011;13676;50.168;8.568;2023-07-20T11:29:47;2.22;;;1.23;;
25846;SDS011;13676;50.168;8.568;2023-07-20T11:32:19;2.70;;;1.10;;
25846;SDS011;13676;50.168;8.568;2023-07-20T11:34:46;2.15;;;1.48;;
25846;SDS011;13676;50.168;8.568;2023-07-20T11:37:12;1.97;;;1.20;;
25846;SDS011;13676;50.168;8.568;2023-07-20T11:39:37;2.30;;;1.10;;
25846;SDS011;13676;50.168;8.568;2023-07-20T11:42:03;1.98;;;1.17;;
25846;SDS011;13676;50.168;8.568;2023-07-20T11:44:30;1.58;;;1.00;;
25846;SDS011;13676;50.168;8.568;2023-07-20T11:47:07;1.67;;;1.20;;
25846;SDS011;13676;50.168;8.568;2023-07-20T11:49:36;1.60;;;1.00;;
25846;SDS011;13676;50.168;8.568;2023-07-20T11:52:07;4.38;;;0.95;;
25846;SDS011;13676;50.168;8.568;2023-07-20T11:54:34;2.17;;;1.20;;
25846;SDS011;13676;50.168;8.568;2023-07-20T11:57:03;1.55;;;1.10;;
25846;SDS011;13676;50.168;8.568;2023-07-20T11:59:30;2.28;;;1.20;;
25846;SDS011;13676;50.168;8.568;2023-07-20T12:01:56;2.92;;;0.93;;
25846;SDS011;13676;50.168;8.568;2023-07-20T12:04:22;2.60;;;1.38;;
25846;SDS011;13676;50.168;8.568;2023-07-20T12:06:48;2.80;;;1.30;;
25846;SDS011;13676;50.168;8.568;2023-07-20T12:09:14;3.88;;;1.20;;
25846;SDS011;13676;50.168;8.568;2023-07-20T12:11:42;2.03;;;1.00;;
25846;SDS011;13676;50.168;8.568;2023-07-20T12:14:09;1.33;;;0.80;;
25846;SDS011;13676;50.168;8.568;2023-07-20T12:16:35;2.10;;;1.02;;
25846;SDS011;13676;50.168;8.568;2023-07-20T12:21:27;1.85;;;1.08;;
25846;SDS011;13676;50.168;8.568;2023-07-20T12:23:52;1.88;;;0.88;;
25846;SDS011;13676;50.168;8.568;2023-07-20T12:26:18;4.72;;;1.13;;
25846;SDS011;13676;50.168;8.568;2023-07-20T12:28:47;1.77;;;1.10;;
25846;SDS011;13676;50.168;8.568;2023-07-20T12:31:14;2.25;;;0.90;;
25846;SDS011;13676;50.168;8.568;2023-07-20T12:33:39;2.17;;;0.90;;
25846;SDS011;13676;50.168;8.568;2023-07-20T12:36:05;1.65;;;0.90;;
25846;SDS011;13676;50.168;8.568;2023-07-20T12:38:31;4.03;;;1.17;;
25846;SDS011;13676;50.168;8.568;2023-07-20T12:40:57;1.45;;;0.95;;
25846;SDS011;13676;50.168;8.568;2023-07-20T12:43:23;1.58;;;1.08;;
25846;SDS011;13676;50.168;8.568;2023-07-20T12:45:49;2.92;;;1.20;;
25846;SDS011;13676;50.168;8.568;2023-07-20T12:48:15;3.10;;;0.87;;
25846;SDS011;13676;50.168;8.568;2023-07-20T12:50:41;2.33;;;0.60;;
25846;SDS011;13676;50.168;8.568;2023-07-20T12:53:06;1.02;;;0.63;;
25846;SDS011;13676;50.168;8.568;2023-07-20T12:55:31;4.40;;;0.80;;
25846;SDS011;13676;50.168;8.568;2023-07-20T12:57:57;3.13;;;0.85;;
25846;SDS011;13676;50.168;8.568;2023-07-20T13:00:23;1.40;;;0.70;;
25846;SDS011;13676;50.168;8.568;2023-07-20T13:02:49;0.95;;;0.60;;
25846;SDS011;13676;50.168;8.568;2023-07-20T13:05:15;3.83;;;1.10;;
25846;SDS011;13676;50.168;8.568;2023-07-20T13:07:41;1.88;;;0.93;;
25846;SDS011;13676;50.168;8.568;2023-07-20T13:10:07;1.42;;;0.90;;
25846;SDS011;13676;50.168;8.568;2023-07-20T13:12:35;1.50;;;0.77;;
25846;SDS011;13676;50.168;8.568;2023-07-20T13:15:05;2.67;;;1.10;;
25846;SDS011;13676;50.168;8.568;2023-07-20T13:17:32;4.25;;;0.95;;
25846;SDS011;13676;50.168;8.568;2023-07-20T13:19:58;2.77;;;1.10;;
25846;SDS011;13676;50.168;8.568;2023-07-20T13:22:24;1.60;;;0.80;;
25846;SDS011;13676;50.168;8.568;2023-07-20T13:24:49;1.60;;;0.88;;
25846;SDS011;13676;50.168;8.568;2023-07-20T13:27:15;2.47;;;0.82;;
25846;SDS011;13676;50.168;8.568;2023-07-20T13:29:41;2.40;;;0.90;;
25846;SDS011;13676;50.168;8.568;2023-07-20T13:32:07;1.98;;;0.80;;
25846;SDS011;13676;50.168;8.568;2023-07-20T13:34:33;1.25;;;0.70;;
25846;SDS011;13676;50.168;8.568;2023-07-20T13:36:58;2.08;;;0.82;;
25846;SDS011;13676;50.168;8.568;2023-07-20T13:39:24;1.30;;;0.85;;
25846;SDS011;13676;50.168;8.568;2023-07-20T13:41:52;2.25;;;0.90;;
25846;SDS011;13676;50.168;8.568;2023-07-20T13:44:17;0.70;;;0.60;;
25846;SDS011;13676;50.168;8.568;2023-07-20T13:46:42;0.85;;;0.60;;
25846;SDS011;13676;50.168;8.568;2023-07-20T13:49:10;1.83;;;0.70;;
25846;SDS011;13676;50.168;8.568;2023-07-20T13:51:35;0.80;;;0.60;;
25846;SDS011;13676;50.168;8.568;2023-07-20T13:54:01;3.88;;;0.77;;
25846;SDS011;13676;50.168;8.568;2023-07-20T13:56:28;1.38;;;0.50;;
25846;SDS011;13676;50.168;8.568;2023-07-20T13:58:54;0.80;;;0.60;;
25846;SDS011;13676;50.168;8.568;2023-07-20T14:01:20;0.70;;;0.52;;
25846;SDS011;13676;50.168;8.568;2023-07-20T14:03:48;1.35;;;0.70;;
25846;SDS011;13676;50.168;8.568;2023-07-20T14:06:13;0.75;;;0.55;;
25846;SDS011;13676;50.168;8.568;2023-07-20T14:08:40;1.13;;;0.73;;
25846;SDS011;13676;50.168;8.568;2023-07-20T14:11:06;4.60;;;0.60;;
25846;SDS011;13676;50.168;8.568;2023-07-20T14:13:33;1.17;;;0.73;;
25846;SDS011;13676;50.168;8.568;2023-07-20T14:15:58;1.63;;;0.70;;
25846;SDS011;13676;50.168;8.568;2023-07-20T14:18:24;2.72;;;0.80;;
25846;SDS011;13676;50.168;8.568;2023-07-20T14:20:50;3.85;;;0.77;;
25846;SDS011;13676;50.168;8.568;2023-07-20T14:23:17;1.00;;;0.73;;
25846;SDS011;13676;50.168;8.568;2023-07-20T14:25:43;1.67;;;0.70;;
25846;SDS011;13676;50.168;8.568;2023-07-20T14:28:09;2.22;;;0.80;;
25846;SDS011;13676;50.168;8.568;2023-07-20T14:30:35;9.93;;;1.05;;
25846;SDS011;13676;50.168;8.568;2023-07-20T14:33:04;2.40;;;0.88;;
25846;SDS011;13676;50.168;8.568;2023-07-20T14:35:31;4.28;;;0.63;;
25846;SDS011;13676;50.168;8.568;2023-07-20T14:37:57;1.30;;;0.50;;
25846;SDS011;13676;50.168;8.568;2023-07-20T14:40:24;1.67;;;0.70;;
25846;SDS011;13676;50.168;8.568;2023-07-20T14:42:50;1.02;;;0.77;;
25846;SDS011;13676;50.168;8.568;2023-07-20T14:45:17;0.80;;;0.68;;
25846;SDS011;13676;50.168;8.568;2023-07-20T14:47:42;2.88;;;0.75;;
25846;SDS011;13676;50.168;8.568;2023-07-20T14:50:08;9.60;;;1.00;;
25846;SDS011;13676;50.168;8.568;2023-07-20T14:52:34;2.33;;;0.93;;
25846;SDS011;13676;50.168;8.568;2023-07-20T14:55:01;5.35;;;0.90;;
25846;SDS011;13676;50.168;8.568;2023-07-20T14:57:29;2.13;;;0.70;;
25846;SDS011;13676;50.168;8.568;2023-07-20T14:59:55;1.58;;;0.70;;
25846;SDS011;13676;50.168;8.568;2023-07-20T15:02:21;2.05;;;0.80;;
25846;SDS011;13676;50.168;8.568;2023-07-20T15:04:50;3.42;;;0.77;;
25846;SDS011;13676;50.168;8.568;2023-07-20T15:07:19;1.80;;;0.90;;
25846;SDS011;13676;50.168;8.568;2023-07-20T15:09:45;1.75;;;0.80;;
25846;SDS011;13676;50.168;8.568;2023-07-20T15:12:10;1.38;;;0.80;;
25846;SDS011;13676;50.168;8.568;2023-07-20T15:14:40;2.30;;;0.90;;